createdAt,value
2022-09-05T00:00:23.891Z,19.20
2022-09-05T00:02:57.465Z,19.03
2022-09-05T00:05:32.648Z,19.12
2022-09-05T00:08:04.819Z,19.08
2022-09-05T00:10:37.567Z,19.00
2022-09-05T00:13:30.552Z,19.16
2022-09-05T00:16:00.845Z,19.48
2022-09-05T00:22:02.279Z,19.82
2022-09-05T00:24:20.906Z,19.29
2022-09-05T00:24:42.428Z,19.44
2022-09-05T00:27:16.825Z,19.42
2022-09-05T00:31:08.929Z,19.61
2022-09-05T00:32:50.088Z,19.23
2022-09-05T00:35:29.012Z,19.13
2022-09-05T00:37:57.289Z,19.23
2022-09-05T00:40:27.274Z,19.39
2022-09-05T00:43:01.222Z,19.24
2022-09-05T00:45:31.585Z,19.19
2022-09-05T00:48:00.852Z,19.43
2022-09-05T00:50:29.726Z,19.21
2022-09-05T00:53:07.299Z,18.95
2022-09-05T00:55:38.201Z,18.79
2022-09-05T00:58:24.294Z,18.73
2022-09-05T01:00:56.896Z,18.82
2022-09-05T01:03:29.835Z,18.82
2022-09-05T01:06:06.681Z,18.63
2022-09-05T01:08:55.143Z,18.74
2022-09-05T01:11:34.098Z,19.62
2022-09-05T01:14:03.580Z,19.57
2022-09-05T01:16:45.135Z,19.42
2022-09-05T01:19:15.779Z,18.93
2022-09-05T01:21:49.582Z,19.46
2022-09-05T01:24:32.377Z,19.80
2022-09-05T01:27:19.031Z,19.57
2022-09-05T01:29:49.317Z,19.32
2022-09-05T01:32:19.867Z,19.29
2022-09-05T01:34:54.695Z,18.61
2022-09-05T01:37:33.732Z,18.68
2022-09-05T01:40:14.614Z,18.78
2022-09-05T01:42:46.457Z,18.87
2022-09-05T01:45:19.863Z,18.72
2022-09-05T01:47:50.356Z,18.73
2022-09-05T01:50:25.998Z,18.65
2022-09-05T01:53:02.564Z,19.01
2022-09-05T01:55:37.935Z,18.87
2022-09-05T01:58:25.645Z,18.92
2022-09-05T02:00:57.269Z,18.67
2022-09-05T02:03:45.649Z,18.96
2022-09-05T02:06:30.545Z,18.97
2022-09-05T02:09:15.094Z,18.80
2022-09-05T02:11:45.484Z,18.93
2022-09-05T02:14:28.783Z,19.02
2022-09-05T02:17:23.608Z,18.79
2022-09-05T02:20:01.025Z,18.71
2022-09-05T02:22:29.593Z,18.84
2022-09-05T02:25:30.649Z,18.79
2022-09-05T02:28:05.628Z,18.42
2022-09-05T02:30:35.876Z,18.43
2022-09-05T02:33:09.018Z,18.85
2022-09-05T02:35:39.991Z,18.93
2022-09-05T02:41:48.568Z,18.31
2022-09-05T02:45:21.086Z,18.48
2022-09-05T02:45:21.361Z,18.37
2022-09-05T02:46:38.026Z,18.63
2022-09-05T02:49:38.157Z,18.30
2022-09-05T02:57:28.116Z,18.51
2022-09-05T02:57:36.180Z,18.28
2022-09-05T02:58:06.976Z,18.07
2022-09-05T03:00:27.277Z,18.29
2022-09-05T03:03:01.949Z,18.36
2022-09-05T03:05:32.133Z,18.24
2022-09-05T03:08:09.174Z,18.54
2022-09-05T03:10:54.482Z,18.51
2022-09-05T03:13:53.996Z,18.17
2022-09-05T03:16:47.193Z,18.19
2022-09-05T03:19:33.394Z,18.07
2022-09-05T03:22:22.560Z,17.89
2022-09-05T03:25:08.541Z,18.07
2022-09-05T03:27:54.219Z,18.09
2022-09-05T03:30:23.363Z,18.17
2022-09-05T03:33:09.746Z,18.10
2022-09-05T03:35:42.006Z,18.19
2022-09-05T03:38:28.195Z,17.96
2022-09-05T03:41:02.596Z,17.79
2022-09-05T03:43:48.966Z,17.85
2022-09-05T03:46:22.743Z,17.62
2022-09-05T03:49:27.243Z,17.41
2022-09-05T03:57:08.731Z,17.49
2022-09-05T03:57:17.819Z,17.58
2022-09-05T03:57:56.905Z,17.84
2022-09-05T04:00:30.239Z,17.81
2022-09-05T04:08:14.636Z,17.81
2022-09-05T04:08:18.449Z,17.81
2022-09-05T04:08:45.985Z,18.01
2022-09-05T04:11:15.458Z,17.98
2022-09-05T04:13:46.945Z,18.56
2022-09-05T04:16:18.763Z,18.50
2022-09-05T04:18:50.068Z,18.50
2022-09-05T04:21:20.179Z,18.43
2022-09-05T04:23:50.870Z,18.60
2022-09-05T04:26:23.687Z,18.33
2022-09-05T04:28:56.857Z,18.41
2022-09-05T04:31:27.801Z,18.61
2022-09-05T04:34:01.279Z,18.98
2022-09-05T04:36:33.081Z,18.82
2022-09-05T04:39:08.300Z,18.86
2022-09-05T04:41:39.486Z,18.28
2022-09-05T04:44:08.325Z,18.39
2022-09-05T04:46:47.375Z,18.21
2022-09-05T04:49:18.394Z,18.36
2022-09-05T04:52:00.742Z,18.19
2022-09-05T04:54:38.826Z,18.11
2022-09-05T04:57:17.971Z,18.28
2022-09-05T05:02:10.192Z,18.23
2022-09-05T05:06:12.587Z,18.29
2022-09-05T05:06:14.656Z,17.24
2022-09-05T05:08:31.737Z,18.12
2022-09-05T05:17:43.001Z,18.29
2022-09-05T05:17:55.651Z,18.21
2022-09-05T05:18:12.787Z,18.09
2022-09-05T05:19:40.465Z,18.14
2022-09-05T05:22:17.236Z,18.05
2022-09-05T05:24:45.796Z,18.46
2022-09-05T05:27:18.061Z,18.38
2022-09-05T05:29:50.173Z,18.10
2022-09-05T05:32:31.720Z,18.13
2022-09-05T05:35:09.042Z,18.43
2022-09-05T05:37:41.006Z,18.47
2022-09-05T05:40:09.888Z,18.59
2022-09-05T05:42:40.791Z,18.41
2022-09-05T05:45:08.918Z,18.11
2022-09-05T05:47:37.229Z,17.73
2022-09-05T05:50:11.549Z,17.60
2022-09-05T05:52:59.776Z,17.76
2022-09-05T05:55:51.314Z,17.95
2022-09-05T05:58:37.218Z,18.08
2022-09-05T06:01:21.986Z,18.28
2022-09-05T06:04:16.705Z,18.71
2022-09-05T06:06:49.499Z,18.38
2022-09-05T06:14:54.717Z,18.26
2022-09-05T06:15:06.830Z,18.03
2022-09-05T06:16:07.609Z,18.30
2022-09-05T06:18:55.757Z,18.66
2022-09-05T06:22:09.628Z,18.97
2022-09-05T06:25:04.794Z,19.10
2022-09-05T06:28:08.759Z,19.28
2022-09-05T06:30:42.386Z,19.46
2022-09-05T06:33:20.089Z,17.97
2022-09-05T06:36:07.762Z,19.20
2022-09-05T06:38:49.179Z,19.12
2022-09-05T06:41:20.893Z,19.25
2022-09-05T06:44:09.118Z,18.96
2022-09-05T06:46:55.066Z,19.35
2022-09-05T06:49:30.323Z,19.47
2022-09-05T06:52:29.785Z,19.68
2022-09-05T06:55:06.377Z,20.08
2022-09-05T06:57:44.038Z,20.69
2022-09-05T07:00:22.687Z,20.64
2022-09-05T07:03:20.994Z,20.22
2022-09-05T07:05:56.583Z,20.79
2022-09-05T07:08:36.140Z,20.83
2022-09-05T07:11:15.600Z,21.08
2022-09-05T07:13:49.982Z,18.94
2022-09-05T07:16:37.034Z,21.17
2022-09-05T07:19:10.408Z,21.15
2022-09-05T07:21:41.812Z,21.28
2022-09-05T07:24:14.176Z,21.95
2022-09-05T07:26:53.852Z,21.90
2022-09-05T07:29:27.687Z,21.70
2022-09-05T07:31:56.821Z,22.51
2022-09-05T07:34:28.146Z,22.35
2022-09-05T07:37:13.991Z,22.31
2022-09-05T07:39:45.464Z,22.56
2022-09-05T07:42:14.617Z,21.78
2022-09-05T07:44:44.327Z,22.10
2022-09-05T07:47:13.797Z,22.70
2022-09-05T07:49:57.967Z,22.83
2022-09-05T07:56:50.336Z,22.83
2022-09-05T07:56:59.518Z,22.79
2022-09-05T07:58:13.197Z,22.77
2022-09-05T08:00:42.280Z,22.85
2022-09-05T08:03:11.195Z,23.12
2022-09-05T08:05:41.222Z,23.05
2022-09-05T08:08:11.590Z,23.68
2022-09-05T08:11:23.314Z,23.54
2022-09-05T08:13:48.113Z,23.10
2022-09-05T08:16:19.498Z,23.49
2022-09-05T08:18:50.533Z,23.43
2022-09-05T08:21:27.000Z,23.12
2022-09-05T08:23:58.458Z,23.65
2022-09-05T08:26:34.112Z,23.92
2022-09-05T08:29:04.595Z,24.32
2022-09-05T08:31:35.248Z,23.97
2022-09-05T08:34:10.381Z,24.61
2022-09-05T08:36:43.046Z,25.19
2022-09-05T08:39:12.101Z,25.38
2022-09-05T08:41:51.194Z,25.00
2022-09-05T08:46:42.014Z,24.71
2022-09-05T08:47:20.442Z,25.00
2022-09-05T08:49:53.348Z,25.63
2022-09-05T08:52:26.379Z,25.90
2022-09-05T08:55:05.814Z,25.60
2022-09-05T08:57:51.164Z,25.83
2022-09-05T09:00:24.909Z,25.69
2022-09-05T09:03:03.997Z,25.92
2022-09-05T09:06:12.843Z,26.17
2022-09-05T09:08:33.475Z,26.48
2022-09-05T09:11:03.697Z,26.40
2022-09-05T09:13:37.673Z,26.58
2022-09-05T09:16:09.103Z,26.59
2022-09-05T09:18:42.815Z,26.41
2022-09-05T09:21:24.454Z,26.10
2022-09-05T09:23:58.457Z,26.20
2022-09-05T09:26:32.451Z,26.69
2022-09-05T09:29:02.615Z,26.60
2022-09-05T09:31:34.705Z,26.35
2022-09-05T09:34:26.495Z,25.43
2022-09-05T09:37:01.496Z,26.70
2022-09-05T09:39:39.258Z,27.17
2022-09-05T09:42:13.544Z,27.17
2022-09-05T09:45:28.015Z,27.25
2022-09-05T09:48:17.639Z,27.25
2022-09-05T09:50:58.538Z,27.52
2022-09-05T09:53:43.199Z,27.73
2022-09-05T09:56:31.971Z,27.42
2022-09-05T09:59:20.309Z,27.55
2022-09-05T10:01:57.567Z,27.59
2022-09-05T10:10:34.990Z,27.62
2022-09-05T10:10:50.597Z,27.65
2022-09-05T10:11:22.649Z,27.58
2022-09-05T10:13:37.436Z,27.43
2022-09-05T10:16:20.601Z,27.89
2022-09-05T10:18:54.619Z,27.72
2022-09-05T10:21:31.499Z,27.63
2022-09-05T10:24:18.218Z,27.98
2022-09-05T10:27:04.612Z,28.12
2022-09-05T10:29:44.210Z,28.24
2022-09-05T10:35:10.444Z,28.01
2022-09-05T10:35:22.589Z,28.20
2022-09-05T10:37:54.281Z,28.29
2022-09-05T10:40:22.312Z,28.97
2022-09-05T10:43:00.916Z,28.96
2022-09-05T10:45:38.109Z,28.62
2022-09-05T10:48:15.778Z,28.82
2022-09-05T10:50:44.369Z,27.88
2022-09-05T10:53:34.829Z,29.30
2022-09-05T10:56:09.983Z,28.51
2022-09-05T11:02:16.228Z,29.13
2022-09-05T11:02:22.026Z,29.18
2022-09-05T11:04:49.890Z,28.94
2022-09-05T11:07:29.202Z,29.89
2022-09-05T11:10:05.472Z,29.82
2022-09-05T11:12:50.344Z,29.96
2022-09-05T11:15:27.723Z,29.82
2022-09-05T11:17:55.629Z,29.97
2022-09-05T11:20:38.197Z,29.56
2022-09-05T11:23:10.962Z,29.79
2022-09-05T11:25:41.076Z,29.72
2022-09-05T11:28:15.932Z,29.88
2022-09-05T11:30:49.419Z,29.51
2022-09-05T11:39:52.577Z,29.34
2022-09-05T11:40:06.360Z,28.42
2022-09-05T11:40:10.857Z,28.50
2022-09-05T11:42:06.545Z,28.76
2022-09-05T11:44:35.974Z,29.22
2022-09-05T11:47:27.075Z,29.24
2022-09-05T11:50:02.343Z,29.02
2022-09-05T11:52:51.550Z,28.52
2022-09-05T11:55:39.969Z,29.03
2022-09-05T11:58:43.269Z,29.18
2022-09-05T12:01:38.211Z,29.46
2022-09-05T12:04:01.125Z,29.95
2022-09-05T12:06:57.396Z,29.99
2022-09-05T12:09:33.325Z,31.23
2022-09-05T12:12:18.719Z,31.18
2022-09-05T12:15:04.307Z,30.93
2022-09-05T12:17:47.414Z,31.02
2022-09-05T12:20:22.075Z,31.13
2022-09-05T12:22:55.840Z,30.59
2022-09-05T12:27:36.017Z,31.44
2022-09-05T12:29:28.142Z,31.00
2022-09-05T12:32:48.360Z,31.75
2022-09-05T12:36:11.387Z,31.79
2022-09-05T12:40:44.895Z,31.38
2022-09-05T12:41:36.533Z,30.34
2022-09-05T12:42:48.362Z,29.84
2022-09-05T12:45:37.103Z,29.62
2022-09-05T12:48:09.252Z,29.17
2022-09-05T12:50:43.765Z,29.67
2022-09-05T12:53:12.367Z,29.63
2022-09-05T12:55:40.865Z,29.67
2022-09-05T13:03:03.881Z,30.63
2022-09-05T13:03:12.928Z,31.22
2022-09-05T13:04:20.748Z,30.15
2022-09-05T13:06:55.186Z,29.60
2022-09-05T13:09:23.774Z,29.30
2022-09-05T13:14:56.432Z,29.19
2022-09-05T13:15:12.363Z,29.08
2022-09-05T13:17:49.813Z,28.95
2022-09-05T13:20:20.467Z,29.36
2022-09-05T13:22:50.899Z,29.02
2022-09-05T13:25:22.903Z,29.08
2022-09-05T13:27:56.833Z,28.89
2022-09-05T13:32:11.836Z,28.96
2022-09-05T13:38:00.927Z,29.12
2022-09-05T13:38:02.195Z,28.41
2022-09-05T13:39:05.362Z,29.21
2022-09-05T13:41:36.002Z,29.92
2022-09-05T13:44:25.659Z,29.17
2022-09-05T13:46:59.348Z,29.50
2022-09-05T13:49:35.358Z,29.40
2022-09-05T13:52:11.806Z,29.45
2022-09-05T13:54:46.415Z,29.56
2022-09-05T13:57:31.847Z,29.77
2022-09-05T14:00:27.911Z,30.40
2022-09-05T14:06:00.033Z,31.72
2022-09-05T14:09:35.221Z,31.86
2022-09-05T14:11:57.694Z,31.54
2022-09-05T14:20:35.339Z,31.01
2022-09-05T14:23:07.809Z,30.99
2022-09-05T14:25:43.121Z,30.99
2022-09-05T14:28:14.448Z,31.25
2022-09-05T14:33:45.343Z,31.49
2022-09-05T14:37:50.391Z,32.41
2022-09-05T14:38:01.062Z,31.59
2022-09-05T14:39:32.003Z,32.31
2022-09-05T14:42:21.505Z,31.99
2022-09-05T14:45:07.720Z,31.86
2022-09-05T14:47:47.457Z,31.32
2022-09-05T14:50:34.987Z,31.27
2022-09-05T14:56:12.222Z,30.83
2022-09-05T15:02:42.187Z,30.59
2022-09-05T15:02:44.772Z,30.27
2022-09-05T15:04:40.871Z,30.00
2022-09-05T15:07:14.983Z,30.07
2022-09-05T15:12:20.852Z,30.20
2022-09-05T15:12:44.163Z,30.52
2022-09-05T15:15:22.188Z,30.73
2022-09-05T15:17:52.584Z,30.97
2022-09-05T15:20:33.904Z,31.12
2022-09-05T15:23:16.326Z,31.64
2022-09-05T15:25:47.138Z,30.90
2022-09-05T15:28:23.607Z,30.75
2022-09-05T15:31:01.201Z,31.52
2022-09-05T15:33:31.986Z,32.18
2022-09-05T15:36:01.792Z,30.67
2022-09-05T15:38:31.855Z,31.11
2022-09-05T15:41:20.319Z,30.89
2022-09-05T15:43:53.457Z,31.13
2022-09-05T15:46:23.991Z,31.11
2022-09-05T15:48:58.046Z,30.48
2022-09-05T15:51:34.582Z,30.40
2022-09-05T15:54:08.382Z,30.30
2022-09-05T15:56:46.793Z,30.47
2022-09-05T15:59:17.448Z,30.47
2022-09-05T16:02:00.327Z,30.24
2022-09-05T16:10:13.624Z,30.09
2022-09-05T16:10:38.138Z,30.09
2022-09-05T16:10:59.097Z,29.88
2022-09-05T16:12:58.208Z,29.95
2022-09-05T16:16:33.703Z,29.93
2022-09-05T16:23:14.502Z,29.80
2022-09-05T16:23:32.028Z,29.66
2022-09-05T16:24:04.910Z,29.51
2022-09-05T16:26:34.886Z,29.51
2022-09-05T16:29:03.388Z,29.30
2022-09-05T16:31:33.903Z,29.38
2022-09-05T16:34:12.159Z,29.15
2022-09-05T16:36:48.646Z,29.05
2022-09-05T16:39:28.539Z,29.22
2022-09-05T16:41:56.687Z,29.38
2022-09-05T16:44:27.450Z,29.26
2022-09-05T16:47:03.050Z,29.62
2022-09-05T16:49:43.014Z,29.32
2022-09-05T16:52:17.202Z,29.66
2022-09-05T16:54:46.718Z,29.45
2022-09-05T16:57:16.767Z,29.25
2022-09-05T16:59:45.295Z,29.23
2022-09-05T17:02:13.525Z,29.30
2022-09-05T17:05:03.376Z,29.27
2022-09-05T17:07:42.041Z,29.18
2022-09-05T17:10:13.818Z,29.28
2022-09-05T17:12:41.943Z,29.20
2022-09-05T17:15:11.464Z,29.27
2022-09-05T17:18:20.043Z,29.17
2022-09-05T17:20:38.349Z,29.19
2022-09-05T17:29:15.903Z,29.13
2022-09-05T17:29:25.750Z,28.95
2022-09-05T17:29:26.615Z,28.96
2022-09-05T17:31:56.187Z,28.76
2022-09-05T17:34:44.086Z,28.60
2022-09-05T17:37:19.809Z,28.71
2022-09-05T17:39:50.494Z,28.68
2022-09-05T17:42:26.237Z,28.66
2022-09-05T17:45:00.528Z,28.47
2022-09-05T17:47:35.414Z,28.39
2022-09-05T17:50:11.904Z,28.34
2022-09-05T17:52:59.296Z,28.27
2022-09-05T17:55:42.008Z,27.98
2022-09-05T17:58:21.990Z,27.76
2022-09-05T18:01:05.509Z,27.64
2022-09-05T18:04:15.837Z,27.37
2022-09-05T18:07:00.250Z,27.20
2022-09-05T18:10:01.476Z,26.70
2022-09-05T18:13:13.383Z,26.94
2022-09-05T18:15:52.176Z,26.69
2022-09-05T18:19:27.911Z,26.51
2022-09-05T18:21:23.159Z,26.99
2022-09-05T18:23:55.844Z,27.03
2022-09-05T18:26:24.319Z,26.98
2022-09-05T18:28:59.978Z,26.90
2022-09-05T18:31:51.146Z,26.87
2022-09-05T18:34:38.190Z,26.83
2022-09-05T18:37:23.202Z,26.87
2022-09-05T18:40:06.595Z,26.85
2022-09-05T18:42:37.604Z,26.83
2022-09-05T18:45:14.675Z,26.25
2022-09-05T18:47:51.144Z,26.16
2022-09-05T18:50:27.034Z,25.94
2022-09-05T18:53:08.721Z,25.92
2022-09-05T18:56:11.257Z,26.08
2022-09-05T18:58:28.524Z,26.17
2022-09-05T19:00:56.565Z,26.11
2022-09-05T19:03:25.623Z,25.76
2022-09-05T19:05:55.717Z,25.58
2022-09-05T19:08:38.590Z,25.51
2022-09-05T19:11:28.323Z,24.91
2022-09-05T19:14:14.249Z,25.52
2022-09-05T19:16:48.220Z,25.60
2022-09-05T19:19:24.764Z,25.67
2022-09-05T19:22:07.100Z,25.69
2022-09-05T19:24:45.557Z,25.57
2022-09-05T19:28:58.430Z,25.32
2022-09-05T19:35:45.504Z,24.91
2022-09-05T19:36:50.678Z,24.86
2022-09-05T19:37:08.889Z,25.07
2022-09-05T19:39:32.601Z,25.13
2022-09-05T19:47:34.150Z,25.20
2022-09-05T19:47:38.545Z,24.94
2022-09-05T19:47:38.732Z,24.79
2022-09-05T19:50:09.646Z,25.06
2022-09-05T19:52:39.751Z,24.49
2022-09-05T19:55:22.427Z,24.21
2022-09-05T19:57:59.675Z,24.12
2022-09-05T20:01:00.272Z,24.60
2022-09-05T20:03:37.123Z,23.92
2022-09-05T20:06:29.320Z,24.22
2022-09-05T20:09:08.722Z,24.06
2022-09-05T20:11:45.661Z,24.07
2022-09-05T20:14:21.607Z,24.45
2022-09-05T20:16:54.646Z,24.05
2022-09-05T20:19:28.730Z,24.43
2022-09-05T20:21:58.283Z,24.20
2022-09-05T20:24:26.073Z,24.40
2022-09-05T20:26:53.777Z,23.81
2022-09-05T20:29:54.020Z,24.06
2022-09-05T20:32:18.086Z,24.29
2022-09-05T20:39:56.201Z,24.08
2022-09-05T20:43:14.515Z,24.00
2022-09-05T20:43:15.474Z,23.57
2022-09-05T20:43:54.764Z,23.28
2022-09-05T20:50:45.663Z,23.46
2022-09-05T20:54:09.601Z,23.97
2022-09-05T20:54:26.432Z,23.92
2022-09-05T20:54:57.861Z,23.80
2022-09-05T20:57:31.233Z,23.07
2022-09-05T21:00:04.858Z,23.04
2022-09-05T21:02:33.354Z,22.89
2022-09-05T21:05:06.750Z,22.77
2022-09-05T21:08:02.435Z,23.38
2022-09-05T21:10:55.400Z,23.33
2022-09-05T21:13:24.171Z,23.60
2022-09-05T21:15:54.031Z,23.63
2022-09-05T21:18:33.122Z,23.75
2022-09-05T21:21:14.611Z,23.09
2022-09-05T21:24:08.994Z,23.19
2022-09-05T21:26:50.845Z,23.51
2022-09-05T21:29:27.635Z,23.30
2022-09-05T21:32:01.029Z,22.60
2022-09-05T21:34:31.111Z,22.35
2022-09-05T21:37:07.166Z,22.57
2022-09-05T21:39:36.726Z,22.81
2022-09-05T21:42:22.938Z,22.09
2022-09-05T21:47:41.108Z,21.91
2022-09-05T21:47:53.624Z,21.92
2022-09-05T21:50:31.030Z,22.37
2022-09-05T21:54:35.162Z,22.16
2022-09-05T21:59:19.391Z,21.69
2022-09-05T21:59:25.436Z,21.84
2022-09-05T22:01:51.698Z,21.70
2022-09-05T22:04:17.116Z,22.06
2022-09-05T22:06:48.779Z,21.98
2022-09-05T22:09:30.172Z,21.86
2022-09-05T22:11:57.815Z,21.69
2022-09-05T22:14:26.105Z,21.59
2022-09-05T22:16:55.003Z,21.70
2022-09-05T22:19:37.255Z,21.94
2022-09-05T22:22:07.575Z,21.84
2022-09-05T22:24:36.662Z,21.50
2022-09-05T22:27:11.632Z,21.88
2022-09-05T22:29:40.907Z,21.72
2022-09-05T22:32:08.792Z,21.22
2022-09-05T22:34:37.853Z,21.41
2022-09-05T22:37:05.881Z,21.23
2022-09-05T22:39:37.913Z,21.03
2022-09-05T22:42:11.094Z,21.18
2022-09-05T22:44:39.513Z,21.20
2022-09-05T22:47:07.548Z,21.43
2022-09-05T22:49:36.493Z,20.94
2022-09-05T22:52:05.186Z,20.92
2022-09-05T22:54:32.848Z,20.93
2022-09-05T22:57:00.469Z,21.05
2022-09-05T22:59:30.269Z,21.58
2022-09-05T23:01:58.049Z,21.29
2022-09-05T23:04:25.966Z,21.34
2022-09-05T23:06:53.821Z,21.14
2022-09-05T23:09:28.154Z,20.88
2022-09-05T23:11:55.725Z,21.44
2022-09-05T23:14:25.418Z,21.60
2022-09-05T23:16:55.573Z,21.78
2022-09-05T23:19:23.180Z,21.28
2022-09-05T23:21:50.814Z,21.35
2022-09-05T23:24:18.419Z,21.14
2022-09-05T23:26:46.014Z,21.18
2022-09-05T23:29:13.947Z,20.92
2022-09-05T23:31:42.033Z,20.85
2022-09-05T23:34:12.432Z,20.78
2022-09-05T23:36:49.196Z,20.78
2022-09-05T23:39:17.142Z,20.90
2022-09-05T23:41:45.187Z,20.73
2022-09-05T23:44:15.616Z,20.46
2022-09-05T23:46:43.464Z,20.33
2022-09-05T23:49:13.145Z,20.37
2022-09-05T23:51:40.758Z,20.08
2022-09-05T23:54:08.563Z,20.32
2022-09-05T23:56:39.042Z,20.21
2022-09-05T23:59:06.702Z,20.34
